sensor_id;sensor_type;location;lat;lon;timestamp;P1;durP1;ratioP1;P2;durP2;ratioP2
65665;SDS011;52365;47.464;18.976;2022-10-14T00:00:16;34.38;;;22.85;;
65665;SDS011;52365;47.464;18.976;2022-10-14T00:00:52;33.95;;;22.75;;
65665;SDS011;52365;47.464;18.976;2022-10-14T00:01:28;40.67;;;24.02;;
65665;SDS011;52365;47.464;18.976;2022-10-14T00:02:07;36.33;;;23.02;;
65665;SDS011;52365;47.464;18.976;2022-10-14T00:02:43;35.58;;;22.65;;
65665;SDS011;52365;47.464;18.976;2022-10-14T00:03:19;38.13;;;23.23;;
65665;SDS011;52365;47.464;18.976;2022-10-14T00:03:55;36.55;;;22.73;;
65665;SDS011;52365;47.464;18.976;2022-10-14T00:04:31;35.00;;;22.48;;
65665;SDS011;52365;47.464;18.976;2022-10-14T00:05:07;36.53;;;22.73;;
65665;SDS011;52365;47.464;18.976;2022-10-14T00:05:44;34.95;;;22.40;;
65665;SDS011;52365;47.464;18.976;2022-10-14T00:06:21;35.40;;;22.25;;
65665;SDS011;52365;47.464;18.976;2022-10-14T00:06:59;34.67;;;22.33;;
65665;SDS011;52365;47.464;18.976;2022-10-14T00:07:36;35.53;;;22.90;;
65665;SDS011;52365;47.464;18.976;2022-10-14T00:08:12;35.83;;;23.30;;
65665;SDS011;52365;47.464;18.976;2022-10-14T00:08:48;36.72;;;23.17;;
65665;SDS011;52365;47.464;18.976;2022-10-14T00:09:25;34.65;;;23.20;;
65665;SDS011;52365;47.464;18.976;2022-10-14T00:10:01;36.65;;;23.83;;
65665;SDS011;52365;47.464;18.976;2022-10-14T00:10:38;39.88;;;23.05;;
65665;SDS011;52365;47.464;18.976;2022-10-14T00:11:22;35.72;;;22.20;;
65665;SDS011;52365;47.464;18.976;2022-10-14T00:12:00;32.67;;;22.73;;
65665;SDS011;52365;47.464;18.976;2022-10-14T00:12:36;34.42;;;23.10;;
65665;SDS011;52365;47.464;18.976;2022-10-14T00:13:12;35.92;;;22.90;;
65665;SDS011;52365;47.464;18.976;2022-10-14T00:13:48;35.42;;;23.40;;
65665;SDS011;52365;47.464;18.976;2022-10-14T00:14:24;36.75;;;23.65;;
65665;SDS011;52365;47.464;18.976;2022-10-14T00:15:00;38.13;;;23.30;;
65665;SDS011;52365;47.464;18.976;2022-10-14T00:15:39;36.50;;;23.52;;
65665;SDS011;52365;47.464;18.976;2022-10-14T00:16:18;36.92;;;23.42;;
65665;SDS011;52365;47.464;18.976;2022-10-14T00:16:56;33.85;;;22.58;;
65665;SDS011;52365;47.464;18.976;2022-10-14T00:17:32;35.78;;;23.00;;
65665;SDS011;52365;47.464;18.976;2022-10-14T00:18:08;34.63;;;22.48;;
65665;SDS011;52365;47.464;18.976;2022-10-14T00:18:45;37.15;;;23.42;;
65665;SDS011;52365;47.464;18.976;2022-10-14T00:19:22;34.42;;;22.98;;
65665;SDS011;52365;47.464;18.976;2022-10-14T00:19:58;36.75;;;23.33;;
65665;SDS011;52365;47.464;18.976;2022-10-14T00:20:34;33.50;;;22.52;;
65665;SDS011;52365;47.464;18.976;2022-10-14T00:21:11;33.95;;;22.40;;
65665;SDS011;52365;47.464;18.976;2022-10-14T00:21:47;34.35;;;22.23;;
65665;SDS011;52365;47.464;18.976;2022-10-14T00:22:23;35.50;;;23.17;;
65665;SDS011;52365;47.464;18.976;2022-10-14T00:22:59;36.53;;;23.15;;
65665;SDS011;52365;47.464;18.976;2022-10-14T00:23:38;35.80;;;23.15;;
65665;SDS011;52365;47.464;18.976;2022-10-14T00:24:14;33.90;;;22.15;;
65665;SDS011;52365;47.464;18.976;2022-10-14T00:24:52;36.92;;;22.95;;
65665;SDS011;52365;47.464;18.976;2022-10-14T00:25:28;33.72;;;22.55;;
65665;SDS011;52365;47.464;18.976;2022-10-14T00:26:04;32.45;;;22.08;;
65665;SDS011;52365;47.464;18.976;2022-10-14T00:26:40;35.05;;;22.67;;
65665;SDS011;52365;47.464;18.976;2022-10-14T00:27:16;36.25;;;22.30;;
65665;SDS011;52365;47.464;18.976;2022-10-14T00:27:53;32.38;;;21.23;;
65665;SDS011;52365;47.464;18.976;2022-10-14T00:28:29;33.80;;;21.80;;
65665;SDS011;52365;47.464;18.976;2022-10-14T00:29:11;32.38;;;21.40;;
65665;SDS011;52365;47.464;18.976;2022-10-14T00:29:49;33.33;;;22.10;;
65665;SDS011;52365;47.464;18.976;2022-10-14T00:30:25;34.23;;;22.00;;
65665;SDS011;52365;47.464;18.976;2022-10-14T00:31:01;34.42;;;21.90;;
65665;SDS011;52365;47.464;18.976;2022-10-14T00:31:37;34.78;;;21.52;;
65665;SDS011;52365;47.464;18.976;2022-10-14T00:32:13;34.45;;;21.87;;
65665;SDS011;52365;47.464;18.976;2022-10-14T00:32:50;32.72;;;21.70;;
65665;SDS011;52365;47.464;18.976;2022-10-14T00:33:26;32.10;;;21.20;;
65665;SDS011;52365;47.464;18.976;2022-10-14T00:34:03;34.80;;;21.25;;
65665;SDS011;52365;47.464;18.976;2022-10-14T00:34:39;33.13;;;22.08;;
65665;SDS011;52365;47.464;18.976;2022-10-14T00:35:15;34.95;;;21.77;;
65665;SDS011;52365;47.464;18.976;2022-10-14T00:35:52;33.83;;;21.73;;
65665;SDS011;52365;47.464;18.976;2022-10-14T00:36:33;32.70;;;20.95;;
65665;SDS011;52365;47.464;18.976;2022-10-14T00:37:09;32.67;;;21.37;;
65665;SDS011;52365;47.464;18.976;2022-10-14T00:37:45;33.65;;;21.85;;
65665;SDS011;52365;47.464;18.976;2022-10-14T00:38:21;32.60;;;22.00;;
65665;SDS011;52365;47.464;18.976;2022-10-14T00:38:57;35.20;;;21.80;;
65665;SDS011;52365;47.464;18.976;2022-10-14T00:39:33;32.17;;;20.85;;
65665;SDS011;52365;47.464;18.976;2022-10-14T00:40:09;33.20;;;21.48;;
65665;SDS011;52365;47.464;18.976;2022-10-14T00:40:45;31.40;;;21.67;;
65665;SDS011;52365;47.464;18.976;2022-10-14T00:41:24;29.67;;;20.85;;
65665;SDS011;52365;47.464;18.976;2022-10-14T00:42:02;31.37;;;21.30;;
65665;SDS011;52365;47.464;18.976;2022-10-14T00:42:38;30.60;;;21.27;;
65665;SDS011;52365;47.464;18.976;2022-10-14T00:43:14;30.45;;;20.62;;
65665;SDS011;52365;47.464;18.976;2022-10-14T00:45:12;30.52;;;21.40;;
65665;SDS011;52365;47.464;18.976;2022-10-14T00:45:49;30.48;;;20.62;;
65665;SDS011;52365;47.464;18.976;2022-10-14T00:46:31;31.42;;;20.17;;
65665;SDS011;52365;47.464;18.976;2022-10-14T00:47:11;30.45;;;20.33;;
65665;SDS011;52365;47.464;18.976;2022-10-14T00:47:47;32.25;;;20.62;;
65665;SDS011;52365;47.464;18.976;2022-10-14T00:48:26;30.95;;;20.12;;
65665;SDS011;52365;47.464;18.976;2022-10-14T00:49:04;30.30;;;20.10;;
65665;SDS011;52365;47.464;18.976;2022-10-14T00:49:48;33.00;;;20.40;;
65665;SDS011;52365;47.464;18.976;2022-10-14T00:50:24;28.58;;;20.35;;
65665;SDS011;52365;47.464;18.976;2022-10-14T00:51:00;32.17;;;20.33;;
65665;SDS011;52365;47.464;18.976;2022-10-14T00:51:37;31.77;;;20.08;;
65665;SDS011;52365;47.464;18.976;2022-10-14T00:52:16;31.62;;;19.95;;
65665;SDS011;52365;47.464;18.976;2022-10-14T00:52:54;28.83;;;19.85;;
65665;SDS011;52365;47.464;18.976;2022-10-14T00:53:31;30.17;;;19.70;;
65665;SDS011;52365;47.464;18.976;2022-10-14T00:54:07;29.67;;;19.98;;
65665;SDS011;52365;47.464;18.976;2022-10-14T00:55:22;29.87;;;19.60;;
65665;SDS011;52365;47.464;18.976;2022-10-14T00:55:58;30.45;;;20.23;;
65665;SDS011;52365;47.464;18.976;2022-10-14T00:56:35;30.65;;;19.77;;
65665;SDS011;52365;47.464;18.976;2022-10-14T00:57:11;27.90;;;19.95;;
65665;SDS011;52365;47.464;18.976;2022-10-14T00:57:48;28.38;;;19.65;;
65665;SDS011;52365;47.464;18.976;2022-10-14T00:58:24;28.25;;;20.12;;
65665;SDS011;52365;47.464;18.976;2022-10-14T00:59:02;28.05;;;19.50;;
65665;SDS011;52365;47.464;18.976;2022-10-14T00:59:39;29.27;;;20.10;;
65665;SDS011;52365;47.464;18.976;2022-10-14T01:00:16;28.38;;;19.62;;
65665;SDS011;52365;47.464;18.976;2022-10-14T01:00:54;29.30;;;20.00;;
65665;SDS011;52365;47.464;18.976;2022-10-14T01:01:30;27.30;;;19.45;;
65665;SDS011;52365;47.464;18.976;2022-10-14T01:02:07;29.30;;;19.12;;
65665;SDS011;52365;47.464;18.976;2022-10-14T01:02:43;27.55;;;18.65;;
65665;SDS011;52365;47.464;18.976;2022-10-14T01:03:20;29.95;;;19.48;;
65665;SDS011;52365;47.464;18.976;2022-10-14T01:03:58;27.92;;;19.60;;
65665;SDS011;52365;47.464;18.976;2022-10-14T01:04:34;27.13;;;18.83;;
65665;SDS011;52365;47.464;18.976;2022-10-14T01:05:14;25.88;;;18.10;;
65665;SDS011;52365;47.464;18.976;2022-10-14T01:05:57;28.40;;;19.25;;
65665;SDS011;52365;47.464;18.976;2022-10-14T01:07:39;26.50;;;18.77;;
65665;SDS011;52365;47.464;18.976;2022-10-14T01:08:36;25.88;;;18.73;;
65665;SDS011;52365;47.464;18.976;2022-10-14T01:13:54;26.85;;;18.10;;
65665;SDS011;52365;47.464;18.976;2022-10-14T01:17:05;25.45;;;18.00;;
65665;SDS011;52365;47.464;18.976;2022-10-14T01:20:10;25.30;;;18.23;;
65665;SDS011;52365;47.464;18.976;2022-10-14T01:22:24;24.75;;;17.85;;
65665;SDS011;52365;47.464;18.976;2022-10-14T01:24:13;25.65;;;18.27;;
65665;SDS011;52365;47.464;18.976;2022-10-14T01:24:58;25.50;;;17.40;;
65665;SDS011;52365;47.464;18.976;2022-10-14T01:27:08;24.08;;;17.25;;
65665;SDS011;52365;47.464;18.976;2022-10-14T01:30:59;24.40;;;17.65;;
65665;SDS011;52365;47.464;18.976;2022-10-14T01:31:35;23.50;;;17.37;;
65665;SDS011;52365;47.464;18.976;2022-10-14T01:32:24;25.50;;;17.75;;
65665;SDS011;52365;47.464;18.976;2022-10-14T01:33:39;26.87;;;17.92;;
65665;SDS011;52365;47.464;18.976;2022-10-14T01:34:26;26.33;;;17.95;;
65665;SDS011;52365;47.464;18.976;2022-10-14T01:35:49;25.60;;;18.23;;
65665;SDS011;52365;47.464;18.976;2022-10-14T01:36:42;26.58;;;17.45;;
65665;SDS011;52365;47.464;18.976;2022-10-14T01:37:23;24.85;;;17.15;;
65665;SDS011;52365;47.464;18.976;2022-10-14T01:38:26;25.42;;;17.75;;
65665;SDS011;52365;47.464;18.976;2022-10-14T01:39:54;24.42;;;17.75;;
65665;SDS011;52365;47.464;18.976;2022-10-14T01:41:30;24.83;;;17.87;;
65665;SDS011;52365;47.464;18.976;2022-10-14T01:42:12;24.70;;;17.65;;
65665;SDS011;52365;47.464;18.976;2022-10-14T01:42:53;25.80;;;18.27;;
65665;SDS011;52365;47.464;18.976;2022-10-14T01:43:31;25.98;;;18.35;;
65665;SDS011;52365;47.464;18.976;2022-10-14T01:44:10;25.00;;;18.08;;
65665;SDS011;52365;47.464;18.976;2022-10-14T01:44:49;25.20;;;17.80;;
65665;SDS011;52365;47.464;18.976;2022-10-14T01:45:29;25.55;;;17.67;;
65665;SDS011;52365;47.464;18.976;2022-10-14T01:46:09;28.35;;;20.67;;
65665;SDS011;52365;47.464;18.976;2022-10-14T01:46:49;27.23;;;19.85;;
65665;SDS011;52365;47.464;18.976;2022-10-14T01:47:28;26.15;;;18.70;;
65665;SDS011;52365;47.464;18.976;2022-10-14T01:48:07;26.85;;;19.62;;
65665;SDS011;52365;47.464;18.976;2022-10-14T01:48:46;31.12;;;20.05;;
65665;SDS011;52365;47.464;18.976;2022-10-14T01:49:36;30.25;;;20.83;;
65665;SDS011;52365;47.464;18.976;2022-10-14T01:50:15;27.67;;;19.30;;
65665;SDS011;52365;47.464;18.976;2022-10-14T01:50:55;27.95;;;19.67;;
65665;SDS011;52365;47.464;18.976;2022-10-14T01:51:43;27.83;;;20.37;;
65665;SDS011;52365;47.464;18.976;2022-10-14T01:52:25;27.50;;;19.45;;
65665;SDS011;52365;47.464;18.976;2022-10-14T01:53:08;28.75;;;20.88;;
65665;SDS011;52365;47.464;18.976;2022-10-14T01:54:32;30.92;;;20.35;;
65665;SDS011;52365;47.464;18.976;2022-10-14T01:54:55;27.48;;;19.85;;
65665;SDS011;52365;47.464;18.976;2022-10-14T01:55:35;30.88;;;20.75;;
65665;SDS011;52365;47.464;18.976;2022-10-14T01:56:17;27.37;;;19.60;;
65665;SDS011;52365;47.464;18.976;2022-10-14T01:56:54;30.08;;;19.67;;
65665;SDS011;52365;47.464;18.976;2022-10-14T01:57:34;27.50;;;19.25;;
65665;SDS011;52365;47.464;18.976;2022-10-14T01:58:14;30.55;;;19.67;;
65665;SDS011;52365;47.464;18.976;2022-10-14T01:58:52;29.27;;;20.67;;
65665;SDS011;52365;47.464;18.976;2022-10-14T01:59:29;29.12;;;19.73;;
65665;SDS011;52365;47.464;18.976;2022-10-14T02:00:08;29.33;;;20.02;;
65665;SDS011;52365;47.464;18.976;2022-10-14T02:00:46;29.17;;;20.25;;
65665;SDS011;52365;47.464;18.976;2022-10-14T02:01:22;29.70;;;21.20;;
65665;SDS011;52365;47.464;18.976;2022-10-14T02:01:59;30.92;;;21.25;;
65665;SDS011;52365;47.464;18.976;2022-10-14T02:02:35;31.15;;;21.20;;
65665;SDS011;52365;47.464;18.976;2022-10-14T02:03:12;29.52;;;20.48;;
65665;SDS011;52365;47.464;18.976;2022-10-14T02:03:48;28.85;;;20.62;;
65665;SDS011;52365;47.464;18.976;2022-10-14T02:04:24;30.15;;;20.70;;
65665;SDS011;52365;47.464;18.976;2022-10-14T02:05:01;28.48;;;20.30;;
65665;SDS011;52365;47.464;18.976;2022-10-14T02:05:56;29.48;;;20.25;;
65665;SDS011;52365;47.464;18.976;2022-10-14T02:06:38;31.60;;;21.90;;
65665;SDS011;52365;47.464;18.976;2022-10-14T02:07:19;30.40;;;21.52;;
65665;SDS011;52365;47.464;18.976;2022-10-14T02:09:00;35.58;;;23.73;;
65665;SDS011;52365;47.464;18.976;2022-10-14T02:10:34;30.58;;;21.87;;
65665;SDS011;52365;47.464;18.976;2022-10-14T02:11:14;30.83;;;21.52;;
65665;SDS011;52365;47.464;18.976;2022-10-14T02:14:51;38.38;;;25.98;;
65665;SDS011;52365;47.464;18.976;2022-10-14T02:15:31;36.00;;;24.90;;
65665;SDS011;52365;47.464;18.976;2022-10-14T02:17:24;32.55;;;23.85;;
65665;SDS011;52365;47.464;18.976;2022-10-14T02:18:32;32.85;;;23.75;;
65665;SDS011;52365;47.464;18.976;2022-10-14T02:19:23;35.20;;;25.17;;
65665;SDS011;52365;47.464;18.976;2022-10-14T02:20:06;39.22;;;26.45;;
65665;SDS011;52365;47.464;18.976;2022-10-14T02:20:58;33.88;;;25.55;;
65665;SDS011;52365;47.464;18.976;2022-10-14T02:21:45;37.67;;;26.55;;
65665;SDS011;52365;47.464;18.976;2022-10-14T02:22:30;34.88;;;25.62;;
65665;SDS011;52365;47.464;18.976;2022-10-14T02:23:15;37.03;;;26.55;;
65665;SDS011;52365;47.464;18.976;2022-10-14T02:23:58;40.00;;;26.95;;
65665;SDS011;52365;47.464;18.976;2022-10-14T02:24:41;43.20;;;29.87;;
65665;SDS011;52365;47.464;18.976;2022-10-14T02:25:22;42.65;;;29.73;;
65665;SDS011;52365;47.464;18.976;2022-10-14T02:26:02;43.80;;;30.35;;
65665;SDS011;52365;47.464;18.976;2022-10-14T02:26:39;42.92;;;30.62;;
65665;SDS011;52365;47.464;18.976;2022-10-14T02:27:17;40.28;;;28.58;;
65665;SDS011;52365;47.464;18.976;2022-10-14T02:27:55;39.42;;;27.37;;
65665;SDS011;52365;47.464;18.976;2022-10-14T02:28:34;37.30;;;27.42;;
65665;SDS011;52365;47.464;18.976;2022-10-14T02:29:11;39.97;;;27.58;;
65665;SDS011;52365;47.464;18.976;2022-10-14T02:29:48;39.13;;;28.10;;
65665;SDS011;52365;47.464;18.976;2022-10-14T02:30:27;38.88;;;27.67;;
65665;SDS011;52365;47.464;18.976;2022-10-14T02:31:08;42.13;;;29.85;;
65665;SDS011;52365;47.464;18.976;2022-10-14T02:31:48;44.42;;;30.27;;
65665;SDS011;52365;47.464;18.976;2022-10-14T02:32:26;41.25;;;29.40;;
65665;SDS011;52365;47.464;18.976;2022-10-14T02:33:03;42.75;;;29.52;;
65665;SDS011;52365;47.464;18.976;2022-10-14T02:33:40;44.65;;;30.65;;
65665;SDS011;52365;47.464;18.976;2022-10-14T02:34:20;40.42;;;30.25;;
65665;SDS011;52365;47.464;18.976;2022-10-14T02:34:58;42.08;;;30.08;;
65665;SDS011;52365;47.464;18.976;2022-10-14T02:35:36;43.22;;;30.90;;
65665;SDS011;52365;47.464;18.976;2022-10-14T02:36:14;44.17;;;30.75;;
65665;SDS011;52365;47.464;18.976;2022-10-14T02:36:54;43.08;;;31.15;;
65665;SDS011;52365;47.464;18.976;2022-10-14T02:37:31;44.67;;;32.40;;
65665;SDS011;52365;47.464;18.976;2022-10-14T02:38:09;46.63;;;31.87;;
65665;SDS011;52365;47.464;18.976;2022-10-14T02:38:45;41.50;;;29.67;;
65665;SDS011;52365;47.464;18.976;2022-10-14T02:39:24;43.55;;;30.60;;
65665;SDS011;52365;47.464;18.976;2022-10-14T02:40:10;43.00;;;29.92;;
65665;SDS011;52365;47.464;18.976;2022-10-14T02:40:55;44.85;;;31.42;;
65665;SDS011;52365;47.464;18.976;2022-10-14T02:41:34;47.78;;;32.35;;
65665;SDS011;52365;47.464;18.976;2022-10-14T02:42:12;42.15;;;30.75;;
65665;SDS011;52365;47.464;18.976;2022-10-14T02:42:48;43.45;;;30.65;;
65665;SDS011;52365;47.464;18.976;2022-10-14T02:43:24;40.28;;;29.05;;
65665;SDS011;52365;47.464;18.976;2022-10-14T02:44:00;41.60;;;29.73;;
65665;SDS011;52365;47.464;18.976;2022-10-14T02:44:36;42.30;;;29.87;;
65665;SDS011;52365;47.464;18.976;2022-10-14T02:45:13;41.70;;;30.45;;
65665;SDS011;52365;47.464;18.976;2022-10-14T02:45:54;39.30;;;29.25;;
65665;SDS011;52365;47.464;18.976;2022-10-14T02:46:33;40.80;;;29.90;;
65665;SDS011;52365;47.464;18.976;2022-10-14T02:47:09;39.40;;;29.83;;
65665;SDS011;52365;47.464;18.976;2022-10-14T02:47:45;43.08;;;31.05;;
65665;SDS011;52365;47.464;18.976;2022-10-14T02:48:21;42.47;;;30.48;;
65665;SDS011;52365;47.464;18.976;2022-10-14T02:48:58;40.97;;;30.02;;
65665;SDS011;52365;47.464;18.976;2022-10-14T02:49:34;41.78;;;30.48;;
65665;SDS011;52365;47.464;18.976;2022-10-14T02:50:10;41.83;;;29.23;;
65665;SDS011;52365;47.464;18.976;2022-10-14T02:50:46;39.05;;;28.83;;
65665;SDS011;52365;47.464;18.976;2022-10-14T02:51:22;40.85;;;29.87;;
65665;SDS011;52365;47.464;18.976;2022-10-14T02:51:59;42.08;;;30.23;;
65665;SDS011;52365;47.464;18.976;2022-10-14T02:52:35;41.72;;;30.48;;
65665;SDS011;52365;47.464;18.976;2022-10-14T02:53:11;40.10;;;28.73;;
65665;SDS011;52365;47.464;18.976;2022-10-14T02:53:50;41.88;;;29.67;;
65665;SDS011;52365;47.464;18.976;2022-10-14T02:54:26;41.33;;;29.53;;
65665;SDS011;52365;47.464;18.976;2022-10-14T02:55:02;39.38;;;28.42;;
65665;SDS011;52365;47.464;18.976;2022-10-14T02:55:39;42.42;;;28.95;;
65665;SDS011;52365;47.464;18.976;2022-10-14T02:56:16;40.65;;;27.80;;
65665;SDS011;52365;47.464;18.976;2022-10-14T02:56:52;41.95;;;28.92;;
65665;SDS011;52365;47.464;18.976;2022-10-14T02:57:28;40.47;;;29.17;;
65665;SDS011;52365;47.464;18.976;2022-10-14T02:58:05;40.60;;;28.92;;
65665;SDS011;52365;47.464;18.976;2022-10-14T02:58:41;38.88;;;28.00;;
65665;SDS011;52365;47.464;18.976;2022-10-14T02:59:17;40.33;;;28.35;;
65665;SDS011;52365;47.464;18.976;2022-10-14T02:59:53;39.83;;;28.67;;
65665;SDS011;52365;47.464;18.976;2022-10-14T03:00:29;40.20;;;29.00;;
65665;SDS011;52365;47.464;18.976;2022-10-14T03:01:05;39.83;;;28.85;;
65665;SDS011;52365;47.464;18.976;2022-10-14T03:01:41;38.95;;;29.15;;
65665;SDS011;52365;47.464;18.976;2022-10-14T03:02:17;37.33;;;27.35;;
65665;SDS011;52365;47.464;18.976;2022-10-14T03:02:53;40.75;;;28.42;;
65665;SDS011;52365;47.464;18.976;2022-10-14T03:03:29;40.08;;;28.65;;
65665;SDS011;52365;47.464;18.976;2022-10-14T03:04:05;39.13;;;27.60;;
65665;SDS011;52365;47.464;18.976;2022-10-14T03:04:41;38.90;;;27.33;;
65665;SDS011;52365;47.464;18.976;2022-10-14T03:05:17;37.55;;;27.05;;
65665;SDS011;52365;47.464;18.976;2022-10-14T03:05:54;38.70;;;27.05;;
65665;SDS011;52365;47.464;18.976;2022-10-14T03:06:30;40.50;;;27.23;;
65665;SDS011;52365;47.464;18.976;2022-10-14T03:07:06;39.67;;;27.98;;
65665;SDS011;52365;47.464;18.976;2022-10-14T03:07:42;37.92;;;27.20;;
65665;SDS011;52365;47.464;18.976;2022-10-14T03:08:18;36.50;;;27.05;;
65665;SDS011;52365;47.464;18.976;2022-10-14T03:08:54;40.75;;;27.37;;
65665;SDS011;52365;47.464;18.976;2022-10-14T03:09:30;35.22;;;25.83;;
65665;SDS011;52365;47.464;18.976;2022-10-14T03:10:06;37.08;;;26.80;;
65665;SDS011;52365;47.464;18.976;2022-10-14T03:10:46;33.90;;;25.45;;
65665;SDS011;52365;47.464;18.976;2022-10-14T03:11:22;35.22;;;25.65;;
65665;SDS011;52365;47.464;18.976;2022-10-14T03:11:58;36.47;;;25.98;;
65665;SDS011;52365;47.464;18.976;2022-10-14T03:12:34;35.85;;;25.50;;
65665;SDS011;52365;47.464;18.976;2022-10-14T03:13:11;34.80;;;25.12;;
65665;SDS011;52365;47.464;18.976;2022-10-14T03:13:47;36.40;;;26.12;;
65665;SDS011;52365;47.464;18.976;2022-10-14T03:14:23;34.75;;;25.50;;
65665;SDS011;52365;47.464;18.976;2022-10-14T03:14:59;35.25;;;25.00;;
65665;SDS011;52365;47.464;18.976;2022-10-14T03:15:35;33.85;;;24.92;;
65665;SDS011;52365;47.464;18.976;2022-10-14T03:16:11;34.60;;;24.77;;
65665;SDS011;52365;47.464;18.976;2022-10-14T03:16:47;33.55;;;24.75;;
65665;SDS011;52365;47.464;18.976;2022-10-14T03:17:24;33.33;;;23.60;;
65665;SDS011;52365;47.464;18.976;2022-10-14T03:18:00;32.38;;;24.17;;
65665;SDS011;52365;47.464;18.976;2022-10-14T03:18:36;33.85;;;24.15;;
65665;SDS011;52365;47.464;18.976;2022-10-14T03:19:12;32.83;;;23.33;;
65665;SDS011;52365;47.464;18.976;2022-10-14T03:19:48;34.22;;;24.30;;
65665;SDS011;52365;47.464;18.976;2022-10-14T03:20:24;32.13;;;23.60;;
65665;SDS011;52365;47.464;18.976;2022-10-14T03:21:00;30.37;;;23.02;;
65665;SDS011;52365;47.464;18.976;2022-10-14T03:21:36;30.52;;;22.62;;
65665;SDS011;52365;47.464;18.976;2022-10-14T03:22:12;32.22;;;23.05;;
65665;SDS011;52365;47.464;18.976;2022-10-14T03:22:48;31.15;;;22.62;;
65665;SDS011;52365;47.464;18.976;2022-10-14T03:23:24;32.03;;;23.58;;
65665;SDS011;52365;47.464;18.976;2022-10-14T03:24:00;31.42;;;23.10;;
65665;SDS011;52365;47.464;18.976;2022-10-14T03:24:36;30.08;;;22.52;;
65665;SDS011;52365;47.464;18.976;2022-10-14T03:25:12;31.23;;;22.90;;
65665;SDS011;52365;47.464;18.976;2022-10-14T03:25:48;31.60;;;23.20;;
65665;SDS011;52365;47.464;18.976;2022-10-14T03:26:24;31.55;;;22.80;;
65665;SDS011;52365;47.464;18.976;2022-10-14T03:27:01;31.00;;;22.92;;
65665;SDS011;52365;47.464;18.976;2022-10-14T03:27:37;32.40;;;22.85;;
65665;SDS011;52365;47.464;18.976;2022-10-14T03:28:13;30.12;;;22.20;;
65665;SDS011;52365;47.464;18.976;2022-10-14T03:28:49;30.17;;;22.08;;
65665;SDS011;52365;47.464;18.976;2022-10-14T03:29:25;31.67;;;22.33;;
65665;SDS011;52365;47.464;18.976;2022-10-14T03:30:01;30.35;;;22.02;;
65665;SDS011;52365;47.464;18.976;2022-10-14T03:30:38;29.02;;;22.25;;
65665;SDS011;52365;47.464;18.976;2022-10-14T03:31:14;31.48;;;22.35;;
65665;SDS011;52365;47.464;18.976;2022-10-14T03:31:50;29.40;;;22.15;;
65665;SDS011;52365;47.464;18.976;2022-10-14T03:32:26;32.40;;;24.30;;
65665;SDS011;52365;47.464;18.976;2022-10-14T03:33:02;35.80;;;25.02;;
65665;SDS011;52365;47.464;18.976;2022-10-14T03:33:38;33.80;;;23.60;;
65665;SDS011;52365;47.464;18.976;2022-10-14T03:34:14;35.72;;;23.75;;
65665;SDS011;52365;47.464;18.976;2022-10-14T03:34:50;32.00;;;23.62;;
65665;SDS011;52365;47.464;18.976;2022-10-14T03:35:26;33.28;;;23.25;;
65665;SDS011;52365;47.464;18.976;2022-10-14T03:36:02;29.95;;;22.20;;
65665;SDS011;52365;47.464;18.976;2022-10-14T03:36:39;32.25;;;23.02;;
65665;SDS011;52365;47.464;18.976;2022-10-14T03:37:15;33.08;;;23.48;;
65665;SDS011;52365;47.464;18.976;2022-10-14T03:37:51;32.08;;;23.20;;
65665;SDS011;52365;47.464;18.976;2022-10-14T03:38:29;32.55;;;22.95;;
65665;SDS011;52365;47.464;18.976;2022-10-14T03:39:05;29.52;;;22.17;;
65665;SDS011;52365;47.464;18.976;2022-10-14T03:39:41;30.80;;;21.95;;
65665;SDS011;52365;47.464;18.976;2022-10-14T03:40:17;32.60;;;22.70;;
65665;SDS011;52365;47.464;18.976;2022-10-14T03:40:53;32.80;;;23.25;;
65665;SDS011;52365;47.464;18.976;2022-10-14T03:41:29;31.27;;;21.98;;
65665;SDS011;52365;47.464;18.976;2022-10-14T03:42:05;30.00;;;22.10;;
65665;SDS011;52365;47.464;18.976;2022-10-14T03:42:41;31.50;;;22.37;;
65665;SDS011;52365;47.464;18.976;2022-10-14T03:43:17;31.08;;;21.65;;
65665;SDS011;52365;47.464;18.976;2022-10-14T03:43:53;30.98;;;22.00;;
65665;SDS011;52365;47.464;18.976;2022-10-14T03:44:29;29.65;;;21.85;;
65665;SDS011;52365;47.464;18.976;2022-10-14T03:45:06;31.05;;;22.25;;
65665;SDS011;52365;47.464;18.976;2022-10-14T03:45:43;32.58;;;22.90;;
65665;SDS011;52365;47.464;18.976;2022-10-14T03:46:20;28.83;;;21.50;;
65665;SDS011;52365;47.464;18.976;2022-10-14T03:46:56;29.85;;;21.35;;
65665;SDS011;52365;47.464;18.976;2022-10-14T03:47:32;31.87;;;21.10;;
65665;SDS011;52365;47.464;18.976;2022-10-14T03:48:08;28.27;;;20.83;;
65665;SDS011;52365;47.464;18.976;2022-10-14T03:48:45;30.90;;;21.37;;
65665;SDS011;52365;47.464;18.976;2022-10-14T03:49:21;30.73;;;21.55;;
65665;SDS011;52365;47.464;18.976;2022-10-14T03:49:57;29.35;;;21.15;;
65665;SDS011;52365;47.464;18.976;2022-10-14T03:50:33;30.92;;;21.17;;
65665;SDS011;52365;47.464;18.976;2022-10-14T03:51:09;28.62;;;21.17;;
65665;SDS011;52365;47.464;18.976;2022-10-14T03:51:45;27.67;;;20.75;;
65665;SDS011;52365;47.464;18.976;2022-10-14T03:52:21;28.10;;;20.20;;
65665;SDS011;52365;47.464;18.976;2022-10-14T03:52:57;27.15;;;20.23;;
65665;SDS011;52365;47.464;18.976;2022-10-14T03:53:33;26.20;;;19.40;;
65665;SDS011;52365;47.464;18.976;2022-10-14T03:54:09;26.95;;;19.70;;
65665;SDS011;52365;47.464;18.976;2022-10-14T03:54:45;25.73;;;19.90;;
65665;SDS011;52365;47.464;18.976;2022-10-14T03:55:21;29.30;;;19.92;;
65665;SDS011;52365;47.464;18.976;2022-10-14T03:55:57;28.75;;;20.48;;
65665;SDS011;52365;47.464;18.976;2022-10-14T03:56:34;27.37;;;19.30;;
65665;SDS011;52365;47.464;18.976;2022-10-14T03:57:10;28.50;;;19.77;;
65665;SDS011;52365;47.464;18.976;2022-10-14T03:57:46;26.02;;;19.62;;
65665;SDS011;52365;47.464;18.976;2022-10-14T03:58:22;28.77;;;19.95;;
65665;SDS011;52365;47.464;18.976;2022-10-14T03:58:58;28.58;;;19.70;;
65665;SDS011;52365;47.464;18.976;2022-10-14T03:59:34;25.90;;;19.75;;
65665;SDS011;52365;47.464;18.976;2022-10-14T04:00:11;29.48;;;19.75;;
65665;SDS011;52365;47.464;18.976;2022-10-14T04:00:47;28.92;;;20.00;;
65665;SDS011;52365;47.464;18.976;2022-10-14T04:01:23;26.10;;;19.25;;
65665;SDS011;52365;47.464;18.976;2022-10-14T04:02:00;31.50;;;20.10;;
65665;SDS011;52365;47.464;18.976;2022-10-14T04:02:36;27.58;;;19.40;;
65665;SDS011;52365;47.464;18.976;2022-10-14T04:03:12;25.35;;;18.73;;
65665;SDS011;52365;47.464;18.976;2022-10-14T04:03:48;27.35;;;19.27;;
65665;SDS011;52365;47.464;18.976;2022-10-14T04:04:25;26.83;;;18.77;;
65665;SDS011;52365;47.464;18.976;2022-10-14T04:05:01;25.58;;;18.33;;
65665;SDS011;52365;47.464;18.976;2022-10-14T04:05:37;25.73;;;18.65;;
65665;SDS011;52365;47.464;18.976;2022-10-14T04:06:13;25.52;;;18.87;;
65665;SDS011;52365;47.464;18.976;2022-10-14T04:06:49;28.48;;;18.70;;
65665;SDS011;52365;47.464;18.976;2022-10-14T04:07:25;25.10;;;18.30;;
65665;SDS011;52365;47.464;18.976;2022-10-14T04:08:01;25.50;;;17.85;;